ケープタウン の空港の天気 - METARとTAF

ケープタウン国際空港 ( FACT / CPT ) - 南アフリカ ケープタウン
飛行場実況気象(Metar)
観測時間01/19 17:00 SAST (01/19 15:00 UTC)
風向・風速南 11m/s
視程10km以上
天気現象
なし
気温20℃
湿度46%
気圧1023hPa
METARFACT 191500Z 17021KT CAVOK 20/08 Q1023 NOSIG
過去の天気等 Google飛行場航空写真 Wunderground天気予報

過去48時間のMETAR

飛行場予報(TAF)
発表時間: 1/19 12:00 SAST (1/19 10:00 UTC)
予報対象時間: 19日14時 SAST ~ 20日20時 SAST
風向・風速南 9m/s
視程10km以上
少しの雲 雲底高度 1220m
20日4時 SAST ~ 20日6時 SAST に徐々に
風向・風速不定 2m/s
20日12時 SAST ~ 20日14時 SAST に徐々に
風向・風速南 7m/s
TAF FACT 191000Z 1912/2018 17018KT 9999 FEW040 TX28/2012Z TN13/2004Z
BECMG 2002/2004 VRB03KT
BECMG 2010/2012 19013KT